Главная страница
METAR-TAF:

METAR-TAF

Аэропорты :

Хуна

Hoonah, Аляска, США

широта: 58-07N, долгота: 135-27W, высота над уровнем моря: 0 м

Текущие метеонаблюдения

Эта сводка был подготовлена 18 минут назад, в 09:14 UTC
Ветер 5 Узел от северно-северо-западный
Температура 2°C
Влажность 93%
Давление 992 hPa
Видимость: 16.1 км
небольшая облачность на высоте 1500 фута
Отдельные облака на высоте 2300 фута
Рассеянная облачность на высоте 3000 фута

METAR: PAOH 120914Z AUTO 33005KT 10SM FEW015 SCT023 BKN030 02/01 A2928 RMK AO2 RAE13 P0001 FZRANO

Время: 00:32 (09:32 UTC)


TAF: отсутствует

Метеонаблюдения и прогнозы для более 4000 аэропортов (сводки METAR и TAF).

Имеющиеся станции представлены на карте желтыми и красными точками.

Чтобы увидеть название станции, наведите на нее мышь.

Затем щелкните, чтобы увидеть метеонаблюдения и метеопрогнозы.

Управление картой: чтобы увеличить масштаб, щелкните зеленые кнопки с черным крестиком; чтобы уменьшить масштаб, щелкните зеленую кнопку с тире; для просмотра соседних карт щелкайте зеленые стрелки.


METAR-TAF: